createdAt,value
2019-04-29T00:00:47.768Z,2.33
2019-04-29T00:01:58.901Z,2.36
2019-04-29T00:03:10.032Z,2.40
2019-04-29T00:04:21.158Z,2.36
2019-04-29T00:05:32.281Z,2.33
2019-04-29T00:06:43.396Z,2.29
2019-04-29T00:07:54.528Z,2.28
2019-04-29T00:09:06.856Z,2.29
2019-04-29T00:10:16.779Z,2.28
2019-04-29T00:11:27.891Z,2.29
2019-04-29T00:12:39.015Z,2.27
2019-04-29T00:13:50.161Z,2.21
2019-04-29T00:15:01.286Z,2.20
2019-04-29T00:16:12.471Z,2.19
2019-04-29T00:17:23.541Z,2.21
2019-04-29T00:18:34.675Z,2.21
2019-04-29T00:19:46.098Z,2.24
2019-04-29T00:20:57.217Z,2.25
2019-04-29T00:22:09.343Z,2.24
2019-04-29T00:23:20.465Z,2.23
2019-04-29T00:24:31.586Z,2.23
2019-04-29T00:25:42.709Z,2.18
2019-04-29T00:26:53.835Z,2.15
2019-04-29T00:28:04.954Z,2.15
2019-04-29T00:29:15.592Z,2.15
2019-04-29T00:30:26.722Z,2.14
2019-04-29T00:31:37.853Z,2.12
2019-04-29T00:32:48.971Z,2.09
2019-04-29T00:34:00.101Z,2.09
2019-04-29T00:35:10.726Z,2.11
2019-04-29T00:36:21.858Z,2.10
2019-04-29T00:37:32.976Z,2.12
2019-04-29T00:38:44.114Z,2.11
2019-04-29T00:39:55.236Z,2.09
2019-04-29T00:41:06.853Z,2.12
2019-04-29T00:42:17.971Z,2.13
2019-04-29T00:43:29.088Z,2.11
2019-04-29T00:45:53.066Z,2.05
2019-04-29T00:47:04.192Z,2.02
2019-04-29T00:48:15.315Z,1.99
2019-04-29T00:49:26.439Z,1.97
2019-04-29T00:50:37.549Z,1.94
2019-04-29T00:51:48.674Z,1.91
2019-04-29T00:52:59.788Z,1.95
2019-04-29T00:54:12.355Z,1.96
2019-04-29T00:55:22.024Z,1.96
2019-04-29T00:56:33.159Z,1.95
2019-04-29T00:57:44.272Z,1.96
2019-04-29T00:58:55.391Z,1.94
2019-04-29T01:00:06.530Z,1.96
2019-04-29T01:01:17.676Z,1.98
2019-04-29T01:02:28.806Z,2.00
2019-04-29T01:03:41.253Z,2.04
2019-04-29T01:04:51.053Z,2.07
2019-04-29T01:06:02.171Z,2.10
2019-04-29T01:07:13.296Z,2.16
2019-04-29T01:08:24.413Z,2.20
2019-04-29T01:09:35.555Z,2.19
2019-04-29T01:10:46.691Z,2.15
2019-04-29T01:11:57.817Z,2.12
2019-04-29T01:13:08.933Z,2.08
2019-04-29T01:14:20.039Z,2.02
2019-04-29T01:15:31.158Z,1.99
2019-04-29T01:16:42.269Z,1.96
2019-04-29T01:17:53.373Z,1.96
2019-04-29T01:19:04.509Z,1.94
2019-04-29T01:20:15.630Z,1.91
2019-04-29T01:21:26.744Z,1.92
2019-04-29T01:22:37.863Z,1.92
2019-04-29T01:23:48.969Z,1.92
2019-04-29T01:25:00.100Z,1.92
2019-04-29T01:26:11.217Z,1.92
2019-04-29T01:27:22.319Z,1.90
2019-04-29T01:28:33.433Z,1.89
2019-04-29T01:29:44.550Z,1.88
2019-04-29T01:30:55.669Z,1.86
2019-04-29T01:32:06.790Z,1.84
2019-04-29T01:33:17.903Z,1.82
2019-04-29T01:34:29.024Z,1.80
2019-04-29T01:35:40.135Z,1.77
2019-04-29T01:36:51.267Z,1.76
2019-04-29T01:38:02.414Z,1.72
2019-04-29T01:39:13.542Z,1.69
2019-04-29T01:40:24.645Z,1.70
2019-04-29T01:41:35.771Z,1.69
2019-04-29T01:42:46.884Z,1.72
2019-04-29T01:43:58.020Z,1.70
2019-04-29T01:45:09.140Z,1.66
2019-04-29T01:46:20.254Z,1.66
2019-04-29T01:47:31.355Z,1.63
2019-04-29T01:48:42.480Z,1.62
2019-04-29T01:49:53.586Z,1.61
2019-04-29T01:51:04.696Z,1.60
2019-04-29T01:52:15.807Z,1.57
2019-04-29T01:53:26.914Z,1.55
2019-04-29T01:54:38.014Z,1.54
2019-04-29T01:55:49.128Z,1.58
2019-04-29T01:57:00.257Z,1.60
2019-04-29T01:58:11.348Z,1.57
2019-04-29T01:59:22.464Z,1.57
2019-04-29T02:00:33.582Z,1.57
2019-04-29T02:01:44.727Z,1.57
2019-04-29T02:02:55.854Z,1.56
2019-04-29T02:04:06.962Z,1.52
2019-04-29T02:05:18.062Z,1.48
2019-04-29T02:06:29.483Z,1.46
2019-04-29T02:07:40.581Z,1.44
2019-04-29T02:08:52.695Z,1.45
2019-04-29T02:10:04.121Z,1.44
2019-04-29T02:11:15.242Z,1.45
2019-04-29T02:12:26.373Z,1.45
2019-04-29T02:13:37.496Z,1.45
2019-04-29T02:14:48.610Z,1.48
2019-04-29T02:15:59.723Z,1.49
2019-04-29T02:17:10.837Z,1.50
2019-04-29T02:18:21.942Z,1.51
2019-04-29T02:19:33.053Z,1.54
2019-04-29T02:20:44.166Z,1.54
2019-04-29T02:21:55.275Z,1.53
2019-04-29T02:23:06.398Z,1.52
2019-04-29T02:24:17.513Z,1.55
2019-04-29T02:25:28.612Z,1.56
2019-04-29T02:26:39.723Z,1.61
2019-04-29T02:27:51.301Z,1.61
2019-04-29T02:29:02.427Z,1.60
2019-04-29T02:30:13.535Z,1.59
2019-04-29T02:31:24.646Z,1.56
2019-04-29T02:32:35.740Z,1.53
2019-04-29T02:33:46.862Z,1.53
2019-04-29T02:34:57.968Z,1.53
2019-04-29T02:36:09.139Z,1.51
2019-04-29T02:37:20.240Z,1.49
2019-04-29T02:38:31.352Z,1.48
2019-04-29T02:39:42.459Z,1.45
2019-04-29T02:40:54.098Z,1.44
2019-04-29T02:42:05.260Z,1.41
2019-04-29T02:43:16.410Z,1.37
2019-04-29T02:44:27.512Z,1.35
2019-04-29T02:45:38.615Z,1.37
2019-04-29T02:46:49.723Z,1.38
2019-04-29T02:48:00.823Z,1.38
2019-04-29T02:49:11.916Z,1.41
2019-04-29T02:50:23.068Z,1.41
2019-04-29T02:51:34.183Z,1.39
2019-04-29T02:52:45.296Z,1.38
2019-04-29T02:53:56.402Z,1.38
2019-04-29T02:55:08.531Z,1.37
2019-04-29T02:56:19.620Z,1.34
2019-04-29T02:57:30.722Z,1.35
2019-04-29T02:58:41.827Z,1.36
2019-04-29T02:59:52.919Z,1.36
2019-04-29T03:01:04.042Z,1.35
2019-04-29T03:02:15.438Z,1.34
2019-04-29T03:03:26.543Z,1.33
2019-04-29T03:04:37.684Z,1.33
2019-04-29T03:05:48.770Z,1.30
2019-04-29T03:06:59.883Z,1.30
2019-04-29T03:08:11.028Z,1.35
2019-04-29T03:09:22.139Z,1.34
2019-04-29T03:10:33.240Z,1.32
2019-04-29T03:11:44.457Z,1.35
2019-04-29T03:12:55.488Z,1.35
2019-04-29T03:14:06.601Z,1.36
2019-04-29T03:15:17.697Z,1.34
2019-04-29T03:16:28.320Z,1.28
2019-04-29T03:17:39.463Z,1.25
2019-04-29T03:18:50.563Z,1.29
2019-04-29T03:20:01.664Z,1.34
2019-04-29T03:21:12.747Z,1.35
2019-04-29T03:22:23.851Z,1.33
2019-04-29T03:23:34.955Z,1.32
2019-04-29T03:24:46.061Z,1.29
2019-04-29T03:25:57.166Z,1.27
2019-04-29T03:27:08.274Z,1.29
2019-04-29T03:28:19.405Z,1.28
2019-04-29T03:29:30.500Z,1.23
2019-04-29T03:30:41.611Z,1.18
2019-04-29T03:31:52.798Z,1.17
2019-04-29T03:33:03.860Z,1.16
2019-04-29T03:34:14.915Z,1.13
2019-04-29T03:35:26.341Z,1.11
2019-04-29T03:36:37.423Z,1.09
2019-04-29T03:37:48.567Z,1.07
2019-04-29T03:38:59.653Z,1.07
2019-04-29T03:40:10.757Z,1.06
2019-04-29T03:41:21.874Z,1.05
2019-04-29T03:42:32.503Z,1.05
2019-04-29T03:43:43.925Z,1.02
2019-04-29T03:44:54.995Z,0.97
2019-04-29T03:46:06.100Z,0.93
2019-04-29T03:47:18.855Z,0.91
2019-04-29T03:48:29.346Z,0.89
2019-04-29T03:49:40.408Z,0.91
2019-04-29T03:50:51.517Z,0.92
2019-04-29T03:52:02.606Z,0.92
2019-04-29T03:53:13.711Z,0.88
2019-04-29T03:54:24.804Z,0.86
2019-04-29T03:55:40.117Z,0.85
2019-04-29T03:56:46.997Z,0.87
2019-04-29T03:57:58.135Z,0.89
2019-04-29T03:59:09.204Z,0.88
2019-04-29T04:00:20.293Z,0.86
2019-04-29T04:01:31.400Z,0.86
2019-04-29T04:02:42.000Z,0.87
2019-04-29T04:03:52.641Z,0.87
2019-04-29T04:05:03.729Z,0.85
2019-04-29T04:06:14.846Z,0.85
2019-04-29T04:07:25.964Z,0.84
2019-04-29T04:08:37.062Z,0.84
2019-04-29T04:09:47.656Z,0.84
2019-04-29T04:10:58.768Z,0.85
2019-04-29T04:12:09.369Z,0.86
2019-04-29T04:13:20.461Z,0.87
2019-04-29T04:14:31.565Z,0.87
2019-04-29T04:15:42.662Z,0.94
2019-04-29T04:16:54.272Z,0.98
2019-04-29T04:18:04.865Z,1.01
2019-04-29T04:19:15.511Z,1.01
2019-04-29T04:20:26.618Z,1.00
2019-04-29T04:21:37.240Z,1.00
2019-04-29T04:22:48.356Z,1.04
2019-04-29T04:23:59.432Z,1.06
2019-04-29T04:25:10.533Z,1.08
2019-04-29T04:26:21.679Z,1.09
2019-04-29T04:27:32.715Z,1.09
2019-04-29T04:28:43.378Z,1.08
2019-04-29T04:29:53.981Z,1.06
2019-04-29T04:31:07.056Z,1.04
2019-04-29T04:32:15.695Z,1.03
2019-04-29T04:33:26.790Z,1.02
2019-04-29T04:34:37.892Z,1.03
2019-04-29T04:35:48.688Z,1.05
2019-04-29T04:37:00.446Z,1.08
2019-04-29T04:38:09.906Z,1.11
2019-04-29T04:39:21.007Z,1.14
2019-04-29T04:40:31.620Z,1.16
2019-04-29T04:41:42.799Z,1.17
2019-04-29T04:42:53.915Z,1.17
2019-04-29T04:44:05.028Z,1.20
2019-04-29T04:45:15.639Z,1.23
2019-04-29T04:46:26.248Z,1.30
2019-04-29T04:47:36.853Z,1.33
2019-04-29T04:48:47.964Z,1.37
2019-04-29T04:49:59.153Z,1.41
2019-04-29T04:51:10.254Z,1.43
2019-04-29T04:52:21.347Z,1.44
2019-04-29T04:53:31.964Z,1.48
2019-04-29T04:54:43.064Z,1.54
2019-04-29T04:55:54.173Z,1.58
2019-04-29T04:57:06.273Z,1.63
2019-04-29T04:58:17.367Z,1.69
2019-04-29T04:59:27.993Z,1.72
2019-04-29T05:00:39.157Z,1.74
2019-04-29T05:01:50.244Z,1.78
2019-04-29T05:03:01.330Z,1.82
2019-04-29T05:04:12.436Z,1.85
2019-04-29T05:05:23.048Z,1.88
2019-04-29T05:06:33.715Z,1.95
2019-04-29T05:07:44.331Z,2.00
2019-04-29T05:08:54.961Z,2.05
2019-04-29T05:10:06.088Z,2.11
2019-04-29T05:11:17.216Z,2.17
2019-04-29T05:12:28.328Z,2.25
2019-04-29T05:13:39.437Z,2.30
2019-04-29T05:14:50.563Z,2.37
2019-04-29T05:16:01.688Z,2.48
2019-04-29T05:17:12.798Z,2.58
2019-04-29T05:18:23.911Z,2.68
2019-04-29T05:19:35.048Z,2.77
2019-04-29T05:20:46.166Z,2.83
2019-04-29T05:21:56.794Z,2.88
2019-04-29T05:23:08.916Z,2.94
2019-04-29T05:24:20.054Z,3.03
2019-04-29T05:25:31.222Z,3.13
2019-04-29T05:26:42.317Z,3.17
2019-04-29T05:27:53.456Z,3.20
2019-04-29T05:29:04.595Z,3.24
2019-04-29T05:30:15.751Z,3.28
2019-04-29T05:31:26.892Z,3.33
2019-04-29T05:32:38.542Z,3.40
2019-04-29T05:33:49.677Z,3.45
2019-04-29T05:35:00.826Z,3.53
2019-04-29T05:36:11.955Z,3.61
2019-04-29T05:37:23.119Z,3.69
2019-04-29T05:38:34.262Z,3.74
2019-04-29T05:39:45.416Z,3.80
2019-04-29T05:40:56.969Z,3.87
2019-04-29T05:42:15.665Z,3.93
2019-04-29T05:43:18.362Z,3.99
2019-04-29T05:44:29.519Z,4.04
2019-04-29T05:45:41.430Z,4.07
2019-04-29T05:46:50.832Z,4.10
2019-04-29T05:48:02.003Z,4.15
2019-04-29T05:49:13.151Z,4.21
2019-04-29T05:50:24.133Z,4.24
2019-04-29T05:51:34.788Z,4.26
2019-04-29T05:52:46.254Z,4.25
2019-04-29T05:53:57.441Z,4.27
2019-04-29T05:55:09.478Z,4.31
2019-04-29T05:56:19.269Z,4.35
2019-04-29T05:57:30.426Z,4.37
2019-04-29T05:58:42.587Z,4.43
2019-04-29T05:59:53.276Z,4.50
2019-04-29T06:01:04.430Z,4.54
2019-04-29T06:02:15.103Z,4.57
2019-04-29T06:03:26.274Z,4.60
2019-04-29T06:04:36.938Z,4.63
2019-04-29T06:05:48.107Z,4.66
2019-04-29T06:06:59.289Z,4.67
2019-04-29T06:08:10.444Z,4.65
2019-04-29T06:09:21.621Z,4.66
2019-04-29T06:10:32.792Z,4.68
2019-04-29T06:11:43.467Z,4.70
2019-04-29T06:12:54.171Z,4.72
2019-04-29T06:14:04.832Z,4.74
2019-04-29T06:15:15.520Z,4.77
2019-04-29T06:16:26.203Z,4.81
2019-04-29T06:17:40.158Z,4.82
2019-04-29T06:18:48.805Z,4.84
2019-04-29T06:19:59.975Z,4.86
2019-04-29T06:21:11.167Z,4.90
2019-04-29T06:22:21.855Z,4.94
2019-04-29T06:23:33.039Z,5.00
2019-04-29T06:24:44.221Z,5.06
2019-04-29T06:25:55.411Z,5.11
2019-04-29T06:27:06.106Z,5.14
2019-04-29T06:28:21.666Z,5.17
2019-04-29T06:29:28.467Z,5.18
2019-04-29T06:30:40.677Z,5.21
2019-04-29T06:31:51.148Z,5.25
2019-04-29T06:33:02.344Z,5.29
2019-04-29T06:34:13.541Z,5.33
2019-04-29T06:35:24.248Z,5.36
2019-04-29T06:36:34.933Z,5.41
2019-04-29T06:37:46.116Z,5.47
2019-04-29T06:38:57.306Z,5.51
2019-04-29T06:40:08.500Z,5.56
2019-04-29T06:41:19.682Z,5.61
2019-04-29T06:42:33.463Z,5.66
2019-04-29T06:43:42.401Z,5.72
2019-04-29T06:44:53.147Z,5.76
2019-04-29T06:46:04.308Z,5.80
2019-04-29T06:47:17.103Z,5.83
2019-04-29T06:48:26.719Z,5.89
2019-04-29T06:49:37.943Z,5.98
2019-04-29T06:50:49.886Z,6.04
2019-04-29T06:51:59.872Z,6.11
2019-04-29T06:53:10.581Z,6.18
2019-04-29T06:54:21.779Z,6.20
2019-04-29T06:55:32.993Z,6.26
2019-04-29T06:56:44.211Z,6.31
2019-04-29T06:57:55.431Z,6.37
2019-04-29T06:59:07.635Z,6.42
2019-04-29T07:00:21.678Z,6.50
2019-04-29T07:01:28.594Z,6.56
2019-04-29T07:02:39.323Z,6.63
2019-04-29T07:03:50.555Z,6.66
2019-04-29T07:05:01.786Z,6.65
2019-04-29T07:06:13.008Z,6.64
2019-04-29T07:07:23.733Z,6.70
2019-04-29T07:08:34.954Z,6.81
2019-04-29T07:09:46.192Z,6.89
2019-04-29T07:11:01.209Z,6.98
2019-04-29T07:12:12.515Z,7.07
2019-04-29T07:13:22.690Z,7.14
2019-04-29T07:14:32.891Z,7.20
2019-04-29T07:15:43.584Z,7.27
2019-04-29T07:16:53.626Z,7.35
2019-04-29T07:18:04.859Z,7.43
2019-04-29T07:19:16.114Z,7.54
2019-04-29T07:20:27.399Z,7.62
2019-04-29T07:21:41.797Z,7.66
2019-04-29T07:22:49.903Z,7.73
2019-04-29T07:24:00.669Z,7.76
2019-04-29T07:25:11.916Z,7.76
2019-04-29T07:26:23.172Z,7.78
2019-04-29T07:27:42.411Z,7.85
2019-04-29T07:28:48.661Z,7.91
2019-04-29T07:29:56.970Z,7.98
2019-04-29T07:31:10.135Z,8.04
2019-04-29T07:32:19.005Z,8.06
2019-04-29T07:33:29.805Z,8.05
2019-04-29T07:34:41.070Z,8.07
2019-04-29T07:35:52.333Z,8.13
2019-04-29T07:37:03.609Z,8.19
2019-04-29T07:38:14.884Z,8.22
2019-04-29T07:39:26.799Z,8.27
2019-04-29T07:40:38.810Z,8.31
2019-04-29T07:41:53.759Z,8.38
2019-04-29T07:43:02.814Z,8.44
2019-04-29T07:44:13.831Z,8.51
2019-04-29T07:45:23.827Z,8.59
2019-04-29T07:46:55.216Z,8.70
2019-04-29T07:47:56.242Z,8.75
2019-04-29T07:49:01.735Z,8.78
2019-04-29T07:50:08.764Z,8.80
2019-04-29T07:51:19.932Z,8.84
2019-04-29T07:52:31.516Z,8.90
2019-04-29T07:53:45.476Z,8.98
2019-04-29T07:54:56.118Z,9.04
2019-04-29T07:56:06.357Z,9.12
2019-04-29T07:57:16.469Z,9.20
2019-04-29T07:58:27.426Z,9.24
2019-04-29T07:59:38.300Z,9.29
2019-04-29T08:00:48.825Z,9.33
2019-04-29T08:02:00.140Z,9.41
2019-04-29T08:03:10.644Z,9.48
2019-04-29T08:04:21.455Z,9.56
2019-04-29T08:05:32.751Z,9.63
2019-04-29T08:06:44.910Z,9.66
2019-04-29T08:07:55.380Z,9.70
2019-04-29T08:09:07.903Z,9.73
2019-04-29T08:10:23.627Z,9.80
2019-04-29T08:11:27.933Z,9.85
2019-04-29T08:12:38.737Z,9.90
2019-04-29T08:13:49.542Z,10.00
2019-04-29T08:15:07.504Z,10.07
2019-04-29T08:16:12.749Z,10.15
2019-04-29T08:17:21.953Z,10.24
2019-04-29T08:18:33.252Z,10.30
2019-04-29T08:19:44.067Z,10.33
2019-04-29T08:20:55.693Z,10.40
2019-04-29T08:22:06.509Z,10.45
2019-04-29T08:23:17.333Z,10.50
2019-04-29T08:24:28.641Z,10.57
2019-04-29T08:25:39.532Z,10.61
2019-04-29T08:26:50.306Z,10.60
2019-04-29T08:28:01.152Z,10.64
2019-04-29T08:29:12.177Z,10.72
2019-04-29T08:30:23.318Z,10.84
2019-04-29T08:31:34.650Z,10.91
2019-04-29T08:32:45.977Z,10.96
2019-04-29T08:33:56.815Z,10.99
2019-04-29T08:35:07.661Z,11.04
2019-04-29T08:36:18.511Z,11.13
2019-04-29T08:37:29.350Z,11.25
2019-04-29T08:38:40.687Z,11.34
2019-04-29T08:40:08.496Z,11.39
2019-04-29T08:41:02.890Z,11.44
2019-04-29T08:42:13.741Z,11.53
2019-04-29T08:43:24.608Z,11.66
2019-04-29T08:44:35.470Z,11.74
2019-04-29T08:45:46.328Z,11.80
2019-04-29T08:46:57.692Z,11.84
2019-04-29T08:48:09.068Z,11.87
2019-04-29T08:49:20.441Z,11.89
2019-04-29T08:50:31.316Z,11.91
2019-04-29T08:51:42.184Z,11.96
2019-04-29T08:52:53.069Z,12.01
2019-04-29T08:54:03.958Z,12.02
2019-04-29T08:55:14.855Z,12.07
2019-04-29T08:56:25.762Z,12.13
2019-04-29T08:57:37.541Z,12.18
2019-04-29T08:58:49.261Z,12.27
2019-04-29T08:59:58.930Z,12.38
2019-04-29T09:01:10.329Z,12.48
2019-04-29T09:02:33.803Z,12.56
2019-04-29T09:03:40.120Z,12.61
2019-04-29T09:04:53.419Z,12.65
2019-04-29T09:06:05.223Z,12.74
2019-04-29T09:07:12.824Z,12.87
2019-04-29T09:08:17.235Z,12.98
2019-04-29T09:09:29.559Z,13.03
2019-04-29T09:10:39.540Z,13.08
2019-04-29T09:11:50.544Z,13.12
2019-04-29T09:13:01.484Z,13.16
2019-04-29T09:14:13.021Z,13.25
2019-04-29T09:15:23.851Z,13.28
2019-04-29T09:16:35.591Z,13.35
2019-04-29T09:17:46.550Z,13.37
2019-04-29T09:18:57.514Z,13.40
2019-04-29T09:20:08.487Z,13.51
2019-04-29T09:21:19.449Z,13.55
2019-04-29T09:22:30.415Z,13.62
2019-04-29T09:23:42.386Z,13.67
2019-04-29T09:24:53.366Z,13.76
2019-04-29T09:26:04.843Z,13.88
2019-04-29T09:27:15.830Z,14.01
2019-04-29T09:28:28.185Z,14.14
2019-04-29T09:29:37.821Z,14.21
2019-04-29T09:30:48.824Z,14.26
2019-04-29T09:31:59.837Z,14.36
2019-04-29T09:33:13.214Z,14.51
2019-04-29T09:34:24.751Z,14.57
2019-04-29T09:35:38.354Z,14.61
2019-04-29T09:36:48.416Z,14.68
2019-04-29T09:37:58.511Z,14.78
2019-04-29T09:39:06.974Z,14.86
2019-04-29T09:40:18.020Z,14.95
2019-04-29T09:41:30.545Z,14.98
2019-04-29T09:42:41.100Z,14.90
2019-04-29T09:43:52.636Z,14.92
2019-04-29T09:45:04.197Z,14.95
2019-04-29T09:46:18.424Z,14.95
2019-04-29T09:47:26.331Z,14.99
2019-04-29T09:48:37.397Z,14.93
2019-04-29T09:49:48.462Z,14.94
2019-04-29T09:50:59.528Z,14.96
2019-04-29T09:52:10.595Z,15.00
2019-04-29T09:53:21.676Z,15.06
2019-04-29T09:54:32.752Z,15.14
2019-04-29T09:55:43.837Z,15.20
2019-04-29T09:56:54.924Z,15.25
2019-04-29T09:58:06.519Z,15.34
2019-04-29T09:59:17.608Z,15.30
2019-04-29T10:00:29.220Z,15.33
2019-04-29T10:01:40.330Z,15.40
2019-04-29T10:02:51.931Z,15.45
2019-04-29T10:04:03.056Z,15.41
2019-04-29T10:05:14.682Z,15.32
2019-04-29T10:06:25.805Z,15.33
2019-04-29T10:07:37.401Z,15.28
2019-04-29T10:08:49.047Z,15.32
2019-04-29T10:10:02.407Z,15.33
2019-04-29T10:11:12.319Z,15.40
2019-04-29T10:12:23.932Z,15.44
2019-04-29T10:13:35.541Z,15.37
2019-04-29T10:14:47.159Z,15.28
2019-04-29T10:16:00.313Z,15.22
2019-04-29T10:17:15.045Z,15.22
2019-04-29T10:18:25.084Z,15.23
2019-04-29T10:19:34.616Z,15.29
2019-04-29T10:20:46.237Z,15.29
2019-04-29T10:21:57.865Z,15.26
2019-04-29T10:23:09.494Z,15.29
2019-04-29T10:24:21.196Z,15.44
2019-04-29T10:25:32.833Z,15.56
2019-04-29T10:26:44.457Z,15.66
2019-04-29T10:27:56.088Z,15.67
2019-04-29T10:29:07.728Z,15.73
2019-04-29T10:30:19.388Z,15.79
2019-04-29T10:31:31.037Z,15.80
2019-04-29T10:32:43.576Z,15.79
2019-04-29T10:33:54.879Z,15.83
2019-04-29T10:35:08.892Z,15.86
2019-04-29T10:36:20.617Z,16.01
2019-04-29T10:37:31.460Z,16.21
2019-04-29T10:38:40.461Z,16.36
2019-04-29T10:39:51.274Z,16.33
2019-04-29T10:41:02.991Z,16.31
2019-04-29T10:42:15.025Z,16.31
2019-04-29T10:43:26.738Z,16.31
2019-04-29T10:44:38.473Z,16.23
2019-04-29T10:45:50.278Z,16.20
2019-04-29T10:47:02.008Z,16.20
2019-04-29T10:48:13.723Z,16.17
2019-04-29T10:49:25.436Z,16.08
2019-04-29T10:50:36.642Z,16.02
2019-04-29T10:51:47.849Z,15.80
2019-04-29T10:52:59.048Z,15.59
2019-04-29T10:54:13.993Z,15.38
2019-04-29T10:55:25.594Z,15.27
2019-04-29T10:56:35.300Z,15.37
2019-04-29T10:57:49.773Z,15.47
2019-04-29T10:58:56.960Z,15.63
2019-04-29T11:00:08.647Z,15.78
2019-04-29T11:01:20.340Z,15.88
2019-04-29T11:02:32.048Z,16.05
2019-04-29T11:03:43.737Z,16.11
2019-04-29T11:04:55.425Z,16.04
2019-04-29T11:06:07.105Z,15.99
2019-04-29T11:07:25.929Z,16.00
2019-04-29T11:08:33.856Z,16.11
2019-04-29T11:09:42.155Z,16.28
2019-04-29T11:11:02.036Z,16.72
2019-04-29T11:12:08.641Z,17.32
2019-04-29T11:13:17.348Z,17.93
2019-04-29T11:14:33.141Z,18.61
2019-04-29T11:15:44.934Z,19.24
2019-04-29T11:16:53.773Z,19.23
2019-04-29T11:18:05.123Z,18.51
2019-04-29T11:19:16.460Z,17.71
2019-04-29T11:20:28.280Z,17.28
2019-04-29T11:21:40.099Z,16.61
2019-04-29T11:22:51.890Z,16.19
2019-04-29T11:24:03.670Z,15.86
2019-04-29T11:25:15.429Z,15.71
2019-04-29T11:26:27.163Z,15.80
2019-04-29T11:27:38.709Z,15.71
2019-04-29T11:28:51.192Z,15.59
2019-04-29T11:30:02.880Z,15.50
2019-04-29T11:31:14.432Z,15.59
2019-04-29T11:32:24.943Z,15.76
2019-04-29T11:33:35.642Z,15.94
2019-04-29T11:34:48.417Z,16.14
2019-04-29T11:35:59.138Z,16.36
2019-04-29T11:37:09.312Z,16.61
2019-04-29T11:38:20.532Z,16.76
2019-04-29T11:39:31.745Z,16.80
2019-04-29T11:40:44.254Z,16.95
2019-04-29T11:41:59.500Z,17.12
2019-04-29T11:43:06.408Z,17.29
2019-04-29T11:44:21.993Z,17.27
2019-04-29T11:45:33.660Z,17.27
2019-04-29T11:46:44.701Z,17.30
2019-04-29T11:47:53.288Z,17.42
2019-04-29T11:49:05.025Z,17.51
2019-04-29T11:50:16.777Z,17.61
2019-04-29T11:51:28.540Z,17.65
2019-04-29T11:52:39.783Z,17.64
2019-04-29T11:53:51.537Z,17.70
2019-04-29T11:55:03.274Z,17.64
2019-04-29T11:56:15.019Z,17.40
2019-04-29T11:57:40.127Z,17.21
2019-04-29T11:58:38.502Z,17.16
2019-04-29T11:59:50.237Z,17.09
2019-04-29T12:01:04.081Z,16.95
2019-04-29T12:02:13.196Z,16.74
2019-04-29T12:03:24.919Z,16.48
2019-04-29T12:04:36.637Z,16.28
2019-04-29T12:05:48.336Z,16.22
2019-04-29T12:07:00.039Z,16.31
2019-04-29T12:08:17.087Z,16.47
2019-04-29T12:09:25.453Z,16.37
2019-04-29T12:10:39.249Z,16.25
2019-04-29T12:11:46.828Z,16.41
2019-04-29T12:12:58.540Z,16.64
2019-04-29T12:14:10.246Z,16.96
2019-04-29T12:15:23.549Z,17.30
2019-04-29T12:16:35.265Z,17.59
2019-04-29T12:17:46.967Z,17.73
2019-04-29T12:18:58.705Z,17.94
2019-04-29T12:20:10.429Z,18.06
2019-04-29T12:21:25.328Z,18.00
2019-04-29T12:22:47.186Z,17.90
2019-04-29T12:23:47.800Z,17.89
2019-04-29T12:24:58.575Z,17.77
2019-04-29T12:26:10.333Z,17.63
2019-04-29T12:27:22.083Z,17.40
2019-04-29T12:28:37.948Z,17.26
2019-04-29T12:29:48.877Z,17.09
2019-04-29T12:30:57.268Z,16.96
2019-04-29T12:32:08.987Z,16.83
2019-04-29T12:33:20.706Z,16.62
2019-04-29T12:34:32.418Z,16.60
2019-04-29T12:35:51.606Z,16.71
2019-04-29T12:36:56.771Z,16.68
2019-04-29T12:38:10.905Z,16.76
2019-04-29T12:39:21.612Z,16.87
2019-04-29T12:40:30.963Z,16.95
2019-04-29T12:41:48.930Z,16.93
2019-04-29T12:42:55.263Z,16.97
2019-04-29T12:44:06.111Z,16.99
2019-04-29T12:45:19.461Z,16.98
2019-04-29T12:46:29.940Z,16.93
2019-04-29T12:47:41.633Z,16.89
2019-04-29T12:48:53.304Z,16.76
2019-04-29T12:50:04.977Z,16.59
2019-04-29T12:51:17.147Z,16.34
2019-04-29T12:52:28.328Z,16.14
2019-04-29T12:53:39.958Z,15.94
2019-04-29T12:54:52.081Z,15.80
2019-04-29T12:56:07.115Z,15.69
2019-04-29T12:57:18.862Z,15.56
2019-04-29T12:58:26.939Z,15.36
2019-04-29T12:59:38.557Z,15.22
2019-04-29T13:00:56.454Z,15.18
2019-04-29T13:02:01.940Z,15.18
2019-04-29T13:03:13.385Z,15.20
2019-04-29T13:04:27.895Z,15.29
2019-04-29T13:05:36.561Z,15.32
2019-04-29T13:06:48.143Z,15.29
2019-04-29T13:07:59.733Z,15.28
2019-04-29T13:09:17.974Z,15.26
2019-04-29T13:10:22.892Z,15.26
2019-04-29T13:11:45.567Z,15.26
2019-04-29T13:12:46.255Z,15.24
2019-04-29T13:14:01.384Z,15.16
2019-04-29T13:15:12.528Z,15.10
2019-04-29T13:16:21.895Z,15.05
2019-04-29T13:17:31.894Z,14.98
2019-04-29T13:18:43.359Z,14.93
2019-04-29T13:20:02.021Z,14.93
2019-04-29T13:21:10.217Z,14.92
2019-04-29T13:22:18.534Z,14.91
2019-04-29T13:23:35.965Z,14.86
2019-04-29T13:24:42.766Z,14.85
2019-04-29T13:25:56.134Z,14.80
2019-04-29T13:27:15.711Z,14.73
2019-04-29T13:29:27.891Z,14.57
2019-04-29T13:30:38.326Z,14.53
2019-04-29T13:31:49.856Z,14.51
2019-04-29T13:33:22.275Z,14.65
2019-04-29T13:33:22.692Z,14.52
2019-04-29T13:34:23.803Z,14.57
2019-04-29T13:35:23.456Z,14.65
2019-04-29T13:36:34.981Z,14.80
2019-04-29T13:37:46.006Z,14.99
2019-04-29T13:38:57.550Z,15.12
2019-04-29T13:40:08.529Z,15.22
2019-04-29T13:41:24.280Z,15.28
2019-04-29T13:42:31.614Z,15.37
2019-04-29T13:43:42.664Z,15.50
2019-04-29T13:45:07.493Z,15.54
2019-04-29T13:46:05.459Z,15.59
2019-04-29T13:47:16.821Z,15.66
2019-04-29T13:48:27.876Z,15.70
2019-04-29T13:49:39.440Z,15.61
2019-04-29T13:50:51.589Z,15.53
2019-04-29T13:52:03.295Z,15.46
2019-04-29T13:53:16.712Z,15.45
2019-04-29T13:54:26.359Z,15.44
2019-04-29T13:56:10.355Z,15.39
2019-04-29T13:56:56.199Z,15.36
2019-04-29T13:58:01.074Z,15.43
2019-04-29T13:59:12.726Z,15.37
2019-04-29T14:00:26.287Z,15.33
2019-04-29T14:01:39.666Z,15.33
2019-04-29T14:02:58.444Z,15.30
2019-04-29T14:03:59.362Z,15.25
2019-04-29T14:05:10.992Z,15.17
2019-04-29T14:06:22.551Z,15.08
2019-04-29T14:07:34.100Z,15.00
2019-04-29T14:08:45.646Z,14.93
2019-04-29T14:09:57.191Z,14.85
2019-04-29T14:11:08.250Z,14.78
2019-04-29T14:12:47.092Z,14.69
2019-04-29T14:13:30.810Z,14.65
2019-04-29T14:14:41.849Z,14.58
2019-04-29T14:15:54.794Z,14.43
2019-04-29T14:18:18.321Z,14.32
2019-04-29T14:19:43.299Z,14.30
2019-04-29T14:20:41.352Z,14.30
2019-04-29T14:21:52.890Z,14.28
2019-04-29T14:23:04.649Z,14.22
2019-04-29T14:24:16.170Z,14.17
2019-04-29T14:25:27.687Z,14.12
2019-04-29T14:26:41.927Z,14.08
2019-04-29T14:27:50.238Z,14.09
2019-04-29T14:29:01.757Z,14.12
2019-04-29T14:30:13.716Z,14.16
2019-04-29T14:31:25.222Z,14.14
2019-04-29T14:32:38.302Z,14.09
2019-04-29T14:33:47.927Z,14.07
2019-04-29T14:34:59.432Z,14.02
2019-04-29T14:36:10.991Z,13.94
2019-04-29T14:37:25.396Z,13.88
2019-04-29T14:38:36.112Z,13.89
2019-04-29T14:39:45.780Z,13.90
2019-04-29T14:40:56.776Z,13.90
2019-04-29T14:42:07.751Z,13.90
2019-04-29T14:43:28.734Z,13.89
2019-04-29T14:44:31.468Z,13.90
2019-04-29T14:45:42.173Z,13.91
2019-04-29T14:46:55.937Z,13.96
2019-04-29T14:48:04.153Z,14.01
2019-04-29T14:49:15.630Z,14.05
2019-04-29T14:50:26.611Z,14.01
2019-04-29T14:51:38.129Z,14.00
2019-04-29T14:52:50.700Z,13.97
2019-04-29T14:54:05.604Z,13.95
2019-04-29T14:55:14.872Z,13.92
2019-04-29T14:56:23.403Z,13.91
2019-04-29T14:57:34.377Z,13.87
2019-04-29T14:58:45.427Z,13.80
2019-04-29T14:59:57.120Z,13.74
2019-04-29T15:01:08.937Z,13.71
2019-04-29T15:02:19.432Z,13.68
2019-04-29T15:03:31.810Z,13.66
2019-04-29T15:04:42.816Z,13.62
2019-04-29T15:05:54.131Z,13.57
2019-04-29T15:07:05.171Z,13.51
2019-04-29T15:08:16.569Z,13.47
2019-04-29T15:09:28.040Z,13.43
2019-04-29T15:10:39.045Z,13.38
2019-04-29T15:11:50.483Z,13.34
2019-04-29T15:13:19.340Z,13.31
2019-04-29T15:14:14.183Z,13.25
2019-04-29T15:15:24.760Z,13.19
2019-04-29T15:16:36.284Z,13.12
2019-04-29T15:17:47.737Z,13.10
2019-04-29T15:19:02.551Z,13.09
2019-04-29T15:20:11.121Z,13.05
2019-04-29T15:21:32.286Z,12.99
2019-04-29T15:22:33.485Z,12.95
2019-04-29T15:23:44.414Z,12.93
2019-04-29T15:24:55.807Z,12.90
2019-04-29T15:26:06.730Z,12.89
2019-04-29T15:27:18.159Z,12.90
2019-04-29T15:28:29.085Z,12.89
2019-04-29T15:29:40.504Z,12.84
2019-04-29T15:30:51.419Z,12.81
2019-04-29T15:32:02.834Z,12.79
2019-04-29T15:33:14.315Z,12.76
2019-04-29T15:34:25.220Z,12.71
2019-04-29T15:35:36.646Z,12.67
2019-04-29T15:36:48.055Z,12.64